Terminal Aerodrome Forecast
Issued by NWS

Home | Current Version | Previous Version | Text Only | Print | Product List | Glossary On
Versions: 1 2 3 4 5 6 7 8 9 10 11 12 13 14 15 16 17
000
FTUS43 KIND 012300 AAA
TAFBMG
TAF AMD
KBMG 012356Z 0200/0224 34005KT P6SM VCTS SCT040CB BKN100
      TEMPO 0200/0201 2SM SHRA SCT025 OVC040
     FM020200 01003KT P6SM FEW040 BKN100
      TEMPO 0207/0209 4SM BR
     FM020900 00000KT 4SM BR FEW040 BKN100
     FM021300 01004KT P6SM SCT100 SCT250
     FM021500 02008KT P6SM SCT030 SCT100 SCT250
      AMD LTD TO CLD VIS AND WIND 0201/0213=

USA.gov is the U.S. government's official web portal to all federal, state and local government web resources and services.